sensor_id;sensor_type;location;lat;lon;timestamp;temperature;humidity
79187;SHT31;68762;51.980;5.646;2023-07-31T00:01:43;17.1;81.0
79187;SHT31;68762;51.980;5.646;2023-07-31T00:04:11;17.1;81.1
79187;SHT31;68762;51.980;5.646;2023-07-31T00:06:40;17.1;81.1
79187;SHT31;68762;51.980;5.646;2023-07-31T00:09:08;17.1;81.2
79187;SHT31;68762;51.980;5.646;2023-07-31T00:11:37;17.1;81.2
79187;SHT31;68762;51.980;5.646;2023-07-31T00:14:05;17.2;81.2
79187;SHT31;68762;51.980;5.646;2023-07-31T00:16:34;17.2;81.4
79187;SHT31;68762;51.980;5.646;2023-07-31T00:19:02;17.2;81.7
79187;SHT31;68762;51.980;5.646;2023-07-31T00:21:31;17.2;81.9
79187;SHT31;68762;51.980;5.646;2023-07-31T00:23:59;17.2;81.9
79187;SHT31;68762;51.980;5.646;2023-07-31T00:26:28;17.2;82.1
79187;SHT31;68762;51.980;5.646;2023-07-31T00:28:56;17.2;82.4
79187;SHT31;68762;51.980;5.646;2023-07-31T00:31:26;17.2;82.7
79187;SHT31;68762;51.980;5.646;2023-07-31T00:33:57;17.3;83.0
79187;SHT31;68762;51.980;5.646;2023-07-31T00:36:25;17.3;83.2
79187;SHT31;68762;51.980;5.646;2023-07-31T00:38:53;17.3;83.6
79187;SHT31;68762;51.980;5.646;2023-07-31T00:41:22;17.4;83.9
79187;SHT31;68762;51.980;5.646;2023-07-31T00:43:50;17.4;84.1
79187;SHT31;68762;51.980;5.646;2023-07-31T00:46:21;17.4;84.3
79187;SHT31;68762;51.980;5.646;2023-07-31T00:48:50;17.5;84.5
79187;SHT31;68762;51.980;5.646;2023-07-31T00:51:20;17.5;84.5
79187;SHT31;68762;51.980;5.646;2023-07-31T00:53:49;17.6;84.5
79187;SHT31;68762;51.980;5.646;2023-07-31T00:56:20;17.6;84.4
79187;SHT31;68762;51.980;5.646;2023-07-31T00:58:49;17.7;84.4
79187;SHT31;68762;51.980;5.646;2023-07-31T01:01:17;17.7;84.1
79187;SHT31;68762;51.980;5.646;2023-07-31T01:03:46;17.8;83.8
79187;SHT31;68762;51.980;5.646;2023-07-31T01:06:25;17.8;83.6
79187;SHT31;68762;51.980;5.646;2023-07-31T01:09:02;17.8;83.2
79187;SHT31;68762;51.980;5.646;2023-07-31T01:11:35;17.9;82.8
79187;SHT31;68762;51.980;5.646;2023-07-31T01:14:06;17.9;83.0
79187;SHT31;68762;51.980;5.646;2023-07-31T01:16:34;18.0;82.6
79187;SHT31;68762;51.980;5.646;2023-07-31T01:19:04;18.0;82.3
79187;SHT31;68762;51.980;5.646;2023-07-31T01:21:51;18.0;82.0
79187;SHT31;68762;51.980;5.646;2023-07-31T01:24:35;18.0;82.0
79187;SHT31;68762;51.980;5.646;2023-07-31T01:27:12;18.1;82.1
79187;SHT31;68762;51.980;5.646;2023-07-31T01:29:49;18.1;81.6
79187;SHT31;68762;51.980;5.646;2023-07-31T01:32:19;18.1;81.7
79187;SHT31;68762;51.980;5.646;2023-07-31T01:34:50;18.2;81.7
79187;SHT31;68762;51.980;5.646;2023-07-31T01:37:21;18.2;81.3
79187;SHT31;68762;51.980;5.646;2023-07-31T01:39:52;18.2;80.7
79187;SHT31;68762;51.980;5.646;2023-07-31T01:42:20;18.2;80.6
79187;SHT31;68762;51.980;5.646;2023-07-31T01:44:48;18.3;80.5
79187;SHT31;68762;51.980;5.646;2023-07-31T01:47:17;18.3;80.2
79187;SHT31;68762;51.980;5.646;2023-07-31T01:49:45;18.3;79.9
79187;SHT31;68762;51.980;5.646;2023-07-31T01:52:14;18.3;80.1
79187;SHT31;68762;51.980;5.646;2023-07-31T01:54:42;18.3;79.8
79187;SHT31;68762;51.980;5.646;2023-07-31T01:57:11;18.4;79.6
79187;SHT31;68762;51.980;5.646;2023-07-31T01:59:39;18.4;79.7
79187;SHT31;68762;51.980;5.646;2023-07-31T02:02:07;18.4;79.6
79187;SHT31;68762;51.980;5.646;2023-07-31T02:04:36;18.4;79.7
79187;SHT31;68762;51.980;5.646;2023-07-31T02:07:05;18.4;79.9
79187;SHT31;68762;51.980;5.646;2023-07-31T02:09:34;18.4;80.0
79187;SHT31;68762;51.980;5.646;2023-07-31T02:12:03;18.4;80.2
79187;SHT31;68762;51.980;5.646;2023-07-31T02:14:32;18.4;80.1
79187;SHT31;68762;51.980;5.646;2023-07-31T02:17:00;18.4;79.9
79187;SHT31;68762;51.980;5.646;2023-07-31T02:19:29;18.4;80.1
79187;SHT31;68762;51.980;5.646;2023-07-31T02:21:57;18.4;80.2
79187;SHT31;68762;51.980;5.646;2023-07-31T02:24:28;18.4;80.2
79187;SHT31;68762;51.980;5.646;2023-07-31T02:26:58;18.4;79.9
79187;SHT31;68762;51.980;5.646;2023-07-31T02:29:26;18.4;79.9
79187;SHT31;68762;51.980;5.646;2023-07-31T02:31:55;18.4;79.8
79187;SHT31;68762;51.980;5.646;2023-07-31T02:34:25;18.4;79.7
79187;SHT31;68762;51.980;5.646;2023-07-31T02:36:53;18.3;80.0
79187;SHT31;68762;51.980;5.646;2023-07-31T02:39:22;18.3;79.9
79187;SHT31;68762;51.980;5.646;2023-07-31T02:41:50;18.3;80.1
79187;SHT31;68762;51.980;5.646;2023-07-31T02:44:19;18.3;79.9
79187;SHT31;68762;51.980;5.646;2023-07-31T02:46:47;18.3;79.5
79187;SHT31;68762;51.980;5.646;2023-07-31T02:49:16;18.3;79.5
79187;SHT31;68762;51.980;5.646;2023-07-31T02:51:44;18.3;79.3
79187;SHT31;68762;51.980;5.646;2023-07-31T02:54:12;18.3;79.0
79187;SHT31;68762;51.980;5.646;2023-07-31T02:56:41;18.3;78.9
79187;SHT31;68762;51.980;5.646;2023-07-31T02:59:09;18.3;78.6
79187;SHT31;68762;51.980;5.646;2023-07-31T03:01:38;18.3;78.8
79187;SHT31;68762;51.980;5.646;2023-07-31T03:04:07;18.3;78.5
79187;SHT31;68762;51.980;5.646;2023-07-31T03:06:35;18.3;78.4
79187;SHT31;68762;51.980;5.646;2023-07-31T03:09:04;18.3;78.7
79187;SHT31;68762;51.980;5.646;2023-07-31T03:11:32;18.3;78.3
79187;SHT31;68762;51.980;5.646;2023-07-31T03:14:00;18.3;78.1
79187;SHT31;68762;51.980;5.646;2023-07-31T03:16:29;18.3;78.1
79187;SHT31;68762;51.980;5.646;2023-07-31T03:18:57;18.3;78.1
79187;SHT31;68762;51.980;5.646;2023-07-31T03:21:28;18.3;77.8
79187;SHT31;68762;51.980;5.646;2023-07-31T03:23:56;18.3;77.6
79187;SHT31;68762;51.980;5.646;2023-07-31T03:26:25;18.3;77.2
79187;SHT31;68762;51.980;5.646;2023-07-31T03:28:53;18.3;77.1
79187;SHT31;68762;51.980;5.646;2023-07-31T03:31:22;18.3;76.8
79187;SHT31;68762;51.980;5.646;2023-07-31T03:33:50;18.3;76.9
79187;SHT31;68762;51.980;5.646;2023-07-31T03:36:18;18.3;76.8
79187;SHT31;68762;51.980;5.646;2023-07-31T03:38:47;18.3;76.6
79187;SHT31;68762;51.980;5.646;2023-07-31T03:41:16;18.3;76.4
79187;SHT31;68762;51.980;5.646;2023-07-31T03:43:46;18.3;76.2
79187;SHT31;68762;51.980;5.646;2023-07-31T03:46:14;18.3;76.6
79187;SHT31;68762;51.980;5.646;2023-07-31T03:48:43;18.3;76.6
79187;SHT31;68762;51.980;5.646;2023-07-31T03:51:12;18.3;76.3
79187;SHT31;68762;51.980;5.646;2023-07-31T03:53:40;18.4;76.3
79187;SHT31;68762;51.980;5.646;2023-07-31T03:56:10;18.4;75.9
79187;SHT31;68762;51.980;5.646;2023-07-31T03:58:39;18.4;75.9
79187;SHT31;68762;51.980;5.646;2023-07-31T04:01:08;18.4;75.6
79187;SHT31;68762;51.980;5.646;2023-07-31T04:03:36;18.4;75.5
79187;SHT31;68762;51.980;5.646;2023-07-31T04:06:07;18.4;75.4
79187;SHT31;68762;51.980;5.646;2023-07-31T04:08:36;18.4;74.9
79187;SHT31;68762;51.980;5.646;2023-07-31T04:11:05;18.4;75.1
79187;SHT31;68762;51.980;5.646;2023-07-31T04:13:33;18.4;74.9
79187;SHT31;68762;51.980;5.646;2023-07-31T04:16:02;18.4;74.9
79187;SHT31;68762;51.980;5.646;2023-07-31T04:18:30;18.4;74.7
79187;SHT31;68762;51.980;5.646;2023-07-31T04:20:59;18.4;74.6
79187;SHT31;68762;51.980;5.646;2023-07-31T04:23:28;18.5;74.4
79187;SHT31;68762;51.980;5.646;2023-07-31T04:25:57;18.5;74.2
79187;SHT31;68762;51.980;5.646;2023-07-31T04:28:25;18.5;74.1
79187;SHT31;68762;51.980;5.646;2023-07-31T04:30:54;18.5;74.1
79187;SHT31;68762;51.980;5.646;2023-07-31T04:33:24;18.5;73.9
79187;SHT31;68762;51.980;5.646;2023-07-31T04:35:54;18.5;73.8
79187;SHT31;68762;51.980;5.646;2023-07-31T04:38:23;18.5;74.0
79187;SHT31;68762;51.980;5.646;2023-07-31T04:40:51;18.5;74.3
79187;SHT31;68762;51.980;5.646;2023-07-31T04:43:20;18.5;74.0
79187;SHT31;68762;51.980;5.646;2023-07-31T04:45:48;18.5;74.1
79187;SHT31;68762;51.980;5.646;2023-07-31T04:48:17;18.5;73.7
79187;SHT31;68762;51.980;5.646;2023-07-31T04:50:45;18.5;73.7
79187;SHT31;68762;51.980;5.646;2023-07-31T04:53:14;18.5;73.7
79187;SHT31;68762;51.980;5.646;2023-07-31T04:55:42;18.5;73.6
79187;SHT31;68762;51.980;5.646;2023-07-31T04:58:11;18.5;73.9
79187;SHT31;68762;51.980;5.646;2023-07-31T05:00:39;18.6;73.7
79187;SHT31;68762;51.980;5.646;2023-07-31T05:03:07;18.6;74.2
79187;SHT31;68762;51.980;5.646;2023-07-31T05:05:37;18.6;74.0
79187;SHT31;68762;51.980;5.646;2023-07-31T05:08:05;18.6;74.0
79187;SHT31;68762;51.980;5.646;2023-07-31T05:10:34;18.6;74.3
79187;SHT31;68762;51.980;5.646;2023-07-31T05:13:03;18.6;74.3
79187;SHT31;68762;51.980;5.646;2023-07-31T05:15:31;18.6;74.4
79187;SHT31;68762;51.980;5.646;2023-07-31T05:18:00;18.6;74.4
79187;SHT31;68762;51.980;5.646;2023-07-31T05:20:28;18.6;74.6
79187;SHT31;68762;51.980;5.646;2023-07-31T05:22:57;18.6;74.9
79187;SHT31;68762;51.980;5.646;2023-07-31T05:25:25;18.6;75.1
79187;SHT31;68762;51.980;5.646;2023-07-31T05:27:54;18.6;75.3
79187;SHT31;68762;51.980;5.646;2023-07-31T05:30:22;18.6;75.4
79187;SHT31;68762;51.980;5.646;2023-07-31T05:32:51;18.6;75.9
79187;SHT31;68762;51.980;5.646;2023-07-31T05:35:20;18.6;76.2
79187;SHT31;68762;51.980;5.646;2023-07-31T05:37:48;18.6;76.4
79187;SHT31;68762;51.980;5.646;2023-07-31T05:40:18;18.6;76.5
79187;SHT31;68762;51.980;5.646;2023-07-31T05:42:47;18.5;76.5
79187;SHT31;68762;51.980;5.646;2023-07-31T05:45:16;18.5;77.0
79187;SHT31;68762;51.980;5.646;2023-07-31T05:47:44;18.5;77.2
79187;SHT31;68762;51.980;5.646;2023-07-31T05:50:12;18.4;77.2
79187;SHT31;68762;51.980;5.646;2023-07-31T05:52:41;18.3;77.6
79187;SHT31;68762;51.980;5.646;2023-07-31T05:55:10;18.3;78.1
79187;SHT31;68762;51.980;5.646;2023-07-31T05:57:38;18.2;78.4
79187;SHT31;68762;51.980;5.646;2023-07-31T06:00:07;18.1;79.0
79187;SHT31;68762;51.980;5.646;2023-07-31T06:02:36;18.1;79.1
79187;SHT31;68762;51.980;5.646;2023-07-31T06:05:05;18.0;79.6
79187;SHT31;68762;51.980;5.646;2023-07-31T06:07:34;18.0;80.0
79187;SHT31;68762;51.980;5.646;2023-07-31T06:10:03;18.0;80.2
79187;SHT31;68762;51.980;5.646;2023-07-31T06:12:32;17.9;80.4
79187;SHT31;68762;51.980;5.646;2023-07-31T06:15:02;17.9;80.7
79187;SHT31;68762;51.980;5.646;2023-07-31T06:17:32;17.9;80.9
79187;SHT31;68762;51.980;5.646;2023-07-31T06:20:01;17.9;81.2
79187;SHT31;68762;51.980;5.646;2023-07-31T06:22:31;17.9;81.6
79187;SHT31;68762;51.980;5.646;2023-07-31T06:25:02;17.9;81.8
79187;SHT31;68762;51.980;5.646;2023-07-31T06:27:32;17.9;81.7
79187;SHT31;68762;51.980;5.646;2023-07-31T06:30:01;17.9;82.0
79187;SHT31;68762;51.980;5.646;2023-07-31T06:32:30;17.8;82.3
79187;SHT31;68762;51.980;5.646;2023-07-31T06:34:58;17.9;82.6
79187;SHT31;68762;51.980;5.646;2023-07-31T06:37:28;17.9;82.6
79187;SHT31;68762;51.980;5.646;2023-07-31T06:39:56;17.9;82.8
79187;SHT31;68762;51.980;5.646;2023-07-31T06:42:25;17.9;82.7
79187;SHT31;68762;51.980;5.646;2023-07-31T06:44:54;17.9;82.6
79187;SHT31;68762;51.980;5.646;2023-07-31T06:47:22;17.9;82.5
79187;SHT31;68762;51.980;5.646;2023-07-31T06:49:52;17.9;82.6
79187;SHT31;68762;51.980;5.646;2023-07-31T06:52:20;17.9;82.8
79187;SHT31;68762;51.980;5.646;2023-07-31T06:55:03;17.9;82.9
79187;SHT31;68762;51.980;5.646;2023-07-31T06:57:32;18.0;82.7
79187;SHT31;68762;51.980;5.646;2023-07-31T07:00:00;18.0;82.8
79187;SHT31;68762;51.980;5.646;2023-07-31T07:02:30;18.0;82.9
79187;SHT31;68762;51.980;5.646;2023-07-31T07:04:59;18.0;83.0
79187;SHT31;68762;51.980;5.646;2023-07-31T07:07:27;18.0;83.1
79187;SHT31;68762;51.980;5.646;2023-07-31T07:09:58;18.1;83.2
79187;SHT31;68762;51.980;5.646;2023-07-31T07:12:29;18.1;83.1
79187;SHT31;68762;51.980;5.646;2023-07-31T07:14:59;18.1;83.1
79187;SHT31;68762;51.980;5.646;2023-07-31T07:17:29;18.1;83.1
79187;SHT31;68762;51.980;5.646;2023-07-31T07:19:59;18.1;83.3
79187;SHT31;68762;51.980;5.646;2023-07-31T07:22:27;18.2;83.2
79187;SHT31;68762;51.980;5.646;2023-07-31T07:24:56;18.2;83.1
79187;SHT31;68762;51.980;5.646;2023-07-31T07:27:25;18.2;82.9
79187;SHT31;68762;51.980;5.646;2023-07-31T07:29:53;18.2;82.8
79187;SHT31;68762;51.980;5.646;2023-07-31T07:32:22;18.2;82.6
79187;SHT31;68762;51.980;5.646;2023-07-31T07:34:50;18.3;82.5
79187;SHT31;68762;51.980;5.646;2023-07-31T07:37:19;18.3;82.6
79187;SHT31;68762;51.980;5.646;2023-07-31T07:39:47;18.3;82.7
79187;SHT31;68762;51.980;5.646;2023-07-31T07:42:16;18.3;82.8
79187;SHT31;68762;51.980;5.646;2023-07-31T07:44:45;18.3;82.5
79187;SHT31;68762;51.980;5.646;2023-07-31T07:47:14;18.3;82.4
79187;SHT31;68762;51.980;5.646;2023-07-31T07:49:42;18.3;82.3
79187;SHT31;68762;51.980;5.646;2023-07-31T07:52:11;18.3;82.3
79187;SHT31;68762;51.980;5.646;2023-07-31T07:54:39;18.3;82.6
79187;SHT31;68762;51.980;5.646;2023-07-31T07:57:08;18.3;82.4
79187;SHT31;68762;51.980;5.646;2023-07-31T07:59:36;18.4;82.5
79187;SHT31;68762;51.980;5.646;2023-07-31T08:02:05;18.4;82.6
79187;SHT31;68762;51.980;5.646;2023-07-31T08:04:34;18.4;82.6
79187;SHT31;68762;51.980;5.646;2023-07-31T08:07:02;18.4;83.0
79187;SHT31;68762;51.980;5.646;2023-07-31T08:09:32;18.4;82.8
79187;SHT31;68762;51.980;5.646;2023-07-31T08:12:01;18.4;82.8
79187;SHT31;68762;51.980;5.646;2023-07-31T08:14:30;18.5;82.8
79187;SHT31;68762;51.980;5.646;2023-07-31T08:16:59;18.5;82.7
79187;SHT31;68762;51.980;5.646;2023-07-31T08:19:29;18.5;82.7
79187;SHT31;68762;51.980;5.646;2023-07-31T08:21:58;18.5;82.2
79187;SHT31;68762;51.980;5.646;2023-07-31T08:24:26;18.5;82.4
79187;SHT31;68762;51.980;5.646;2023-07-31T08:26:55;18.5;82.4
79187;SHT31;68762;51.980;5.646;2023-07-31T08:29:24;18.6;82.7
79187;SHT31;68762;51.980;5.646;2023-07-31T08:31:53;18.6;83.0
79187;SHT31;68762;51.980;5.646;2023-07-31T08:34:22;18.6;82.7
79187;SHT31;68762;51.980;5.646;2023-07-31T08:36:50;18.6;82.8
79187;SHT31;68762;51.980;5.646;2023-07-31T08:39:21;18.6;83.1
79187;SHT31;68762;51.980;5.646;2023-07-31T08:41:49;18.6;83.1
79187;SHT31;68762;51.980;5.646;2023-07-31T08:44:18;18.7;82.6
79187;SHT31;68762;51.980;5.646;2023-07-31T08:46:48;18.7;83.0
79187;SHT31;68762;51.980;5.646;2023-07-31T08:49:18;18.7;83.1
79187;SHT31;68762;51.980;5.646;2023-07-31T08:51:50;18.7;82.8
79187;SHT31;68762;51.980;5.646;2023-07-31T08:54:20;18.7;83.1
79187;SHT31;68762;51.980;5.646;2023-07-31T08:56:49;18.8;82.5
79187;SHT31;68762;51.980;5.646;2023-07-31T08:59:19;18.8;82.3
79187;SHT31;68762;51.980;5.646;2023-07-31T09:01:53;18.8;82.6
79187;SHT31;68762;51.980;5.646;2023-07-31T09:04:23;18.8;82.4
79187;SHT31;68762;51.980;5.646;2023-07-31T09:06:57;18.8;82.5
79187;SHT31;68762;51.980;5.646;2023-07-31T09:09:29;18.8;82.2
79187;SHT31;68762;51.980;5.646;2023-07-31T09:11:58;18.8;82.3
79187;SHT31;68762;51.980;5.646;2023-07-31T09:14:29;18.8;82.5
79187;SHT31;68762;51.980;5.646;2023-07-31T09:16:58;18.9;82.4
79187;SHT31;68762;51.980;5.646;2023-07-31T09:19:29;18.9;82.1
79187;SHT31;68762;51.980;5.646;2023-07-31T09:21:57;18.9;82.0
79187;SHT31;68762;51.980;5.646;2023-07-31T09:24:30;18.9;81.8
79187;SHT31;68762;51.980;5.646;2023-07-31T09:27:01;18.9;81.7
79187;SHT31;68762;51.980;5.646;2023-07-31T09:29:30;18.9;81.8
79187;SHT31;68762;51.980;5.646;2023-07-31T09:31:58;18.9;82.3
79187;SHT31;68762;51.980;5.646;2023-07-31T09:34:38;18.9;82.3
79187;SHT31;68762;51.980;5.646;2023-07-31T09:37:07;18.9;82.2
79187;SHT31;68762;51.980;5.646;2023-07-31T09:39:48;18.9;82.1
79187;SHT31;68762;51.980;5.646;2023-07-31T09:42:26;18.9;81.9
79187;SHT31;68762;51.980;5.646;2023-07-31T09:45:09;18.9;82.6
79187;SHT31;68762;51.980;5.646;2023-07-31T09:47:38;18.9;82.4
79187;SHT31;68762;51.980;5.646;2023-07-31T09:50:09;18.9;82.6
79187;SHT31;68762;51.980;5.646;2023-07-31T09:52:39;19.0;82.8
79187;SHT31;68762;51.980;5.646;2023-07-31T09:55:08;19.0;82.1
79187;SHT31;68762;51.980;5.646;2023-07-31T09:57:40;19.0;82.1
79187;SHT31;68762;51.980;5.646;2023-07-31T10:00:09;19.0;82.0
79187;SHT31;68762;51.980;5.646;2023-07-31T10:02:39;19.0;81.9
79187;SHT31;68762;51.980;5.646;2023-07-31T10:05:08;19.1;81.8
79187;SHT31;68762;51.980;5.646;2023-07-31T10:07:38;19.1;81.5
79187;SHT31;68762;51.980;5.646;2023-07-31T10:10:09;19.1;81.4
79187;SHT31;68762;51.980;5.646;2023-07-31T10:12:38;19.1;81.2
79187;SHT31;68762;51.980;5.646;2023-07-31T10:15:08;19.1;81.4
79187;SHT31;68762;51.980;5.646;2023-07-31T10:17:38;19.2;81.9
79187;SHT31;68762;51.980;5.646;2023-07-31T10:20:07;19.2;82.2
79187;SHT31;68762;51.980;5.646;2023-07-31T10:22:38;19.2;81.2
79187;SHT31;68762;51.980;5.646;2023-07-31T10:25:08;19.3;81.3
79187;SHT31;68762;51.980;5.646;2023-07-31T10:27:39;19.3;80.9
79187;SHT31;68762;51.980;5.646;2023-07-31T10:30:11;19.3;81.2
79187;SHT31;68762;51.980;5.646;2023-07-31T10:32:41;19.3;80.9
79187;SHT31;68762;51.980;5.646;2023-07-31T10:35:11;19.4;81.3
79187;SHT31;68762;51.980;5.646;2023-07-31T10:37:41;19.4;81.2
79187;SHT31;68762;51.980;5.646;2023-07-31T10:40:13;19.4;81.0
79187;SHT31;68762;51.980;5.646;2023-07-31T10:42:48;19.4;80.9
79187;SHT31;68762;51.980;5.646;2023-07-31T10:45:30;19.5;80.9
79187;SHT31;68762;51.980;5.646;2023-07-31T10:48:03;19.5;80.6
79187;SHT31;68762;51.980;5.646;2023-07-31T10:50:36;19.5;81.2
79187;SHT31;68762;51.980;5.646;2023-07-31T10:53:05;19.6;80.8
79187;SHT31;68762;51.980;5.646;2023-07-31T10:55:41;19.6;80.6
79187;SHT31;68762;51.980;5.646;2023-07-31T10:58:13;19.6;81.2
79187;SHT31;68762;51.980;5.646;2023-07-31T11:00:43;19.6;80.7
79187;SHT31;68762;51.980;5.646;2023-07-31T11:03:14;19.7;80.2
79187;SHT31;68762;51.980;5.646;2023-07-31T11:05:48;19.7;80.8
79187;SHT31;68762;51.980;5.646;2023-07-31T11:08:19;19.7;80.2
79187;SHT31;68762;51.980;5.646;2023-07-31T11:10:50;19.7;80.1
79187;SHT31;68762;51.980;5.646;2023-07-31T11:13:21;19.8;80.8
79187;SHT31;68762;51.980;5.646;2023-07-31T11:15:49;19.8;80.6
79187;SHT31;68762;51.980;5.646;2023-07-31T11:18:18;19.8;80.9
79187;SHT31;68762;51.980;5.646;2023-07-31T11:20:47;19.8;80.6
79187;SHT31;68762;51.980;5.646;2023-07-31T11:23:17;19.8;80.6
79187;SHT31;68762;51.980;5.646;2023-07-31T11:25:46;19.8;80.4
79187;SHT31;68762;51.980;5.646;2023-07-31T11:28:16;19.8;80.6
79187;SHT31;68762;51.980;5.646;2023-07-31T11:30:47;19.8;80.4
79187;SHT31;68762;51.980;5.646;2023-07-31T11:33:16;19.9;80.3
79187;SHT31;68762;51.980;5.646;2023-07-31T11:35:46;19.9;80.2
79187;SHT31;68762;51.980;5.646;2023-07-31T11:38:24;19.9;79.6
79187;SHT31;68762;51.980;5.646;2023-07-31T11:40:53;19.9;80.3
79187;SHT31;68762;51.980;5.646;2023-07-31T11:43:22;19.9;80.1
79187;SHT31;68762;51.980;5.646;2023-07-31T11:45:55;20.0;80.0
79187;SHT31;68762;51.980;5.646;2023-07-31T11:48:25;20.0;80.8
79187;SHT31;68762;51.980;5.646;2023-07-31T11:50:58;20.0;80.3
79187;SHT31;68762;51.980;5.646;2023-07-31T11:53:31;20.0;80.1
79187;SHT31;68762;51.980;5.646;2023-07-31T11:56:01;20.1;79.5
79187;SHT31;68762;51.980;5.646;2023-07-31T11:58:34;20.1;79.1
79187;SHT31;68762;51.980;5.646;2023-07-31T12:01:05;20.2;79.1
79187;SHT31;68762;51.980;5.646;2023-07-31T12:03:35;20.2;78.5
79187;SHT31;68762;51.980;5.646;2023-07-31T12:06:04;20.2;78.0
79187;SHT31;68762;51.980;5.646;2023-07-31T12:08:33;20.3;78.3
79187;SHT31;68762;51.980;5.646;2023-07-31T12:11:05;20.3;78.5
79187;SHT31;68762;51.980;5.646;2023-07-31T12:13:36;20.3;78.1
79187;SHT31;68762;51.980;5.646;2023-07-31T12:16:05;20.4;77.9
79187;SHT31;68762;51.980;5.646;2023-07-31T12:18:36;20.4;77.7
79187;SHT31;68762;51.980;5.646;2023-07-31T12:21:07;20.4;78.2
79187;SHT31;68762;51.980;5.646;2023-07-31T12:23:38;20.5;78.5
79187;SHT31;68762;51.980;5.646;2023-07-31T12:26:10;20.5;78.2
79187;SHT31;68762;51.980;5.646;2023-07-31T12:28:41;20.5;77.6
79187;SHT31;68762;51.980;5.646;2023-07-31T12:31:12;20.5;76.9
79187;SHT31;68762;51.980;5.646;2023-07-31T12:33:41;20.6;77.2
79187;SHT31;68762;51.980;5.646;2023-07-31T12:36:12;20.6;76.9
79187;SHT31;68762;51.980;5.646;2023-07-31T12:38:41;20.6;77.1
79187;SHT31;68762;51.980;5.646;2023-07-31T12:41:10;20.6;77.6
79187;SHT31;68762;51.980;5.646;2023-07-31T12:43:41;20.6;77.3
79187;SHT31;68762;51.980;5.646;2023-07-31T12:46:09;20.6;77.8
79187;SHT31;68762;51.980;5.646;2023-07-31T12:48:39;20.6;78.1
79187;SHT31;68762;51.980;5.646;2023-07-31T12:51:08;20.6;77.8
79187;SHT31;68762;51.980;5.646;2023-07-31T12:53:36;20.6;78.0
79187;SHT31;68762;51.980;5.646;2023-07-31T12:56:07;20.6;78.5
79187;SHT31;68762;51.980;5.646;2023-07-31T12:58:35;20.7;78.2
79187;SHT31;68762;51.980;5.646;2023-07-31T13:01:04;20.7;78.2
79187;SHT31;68762;51.980;5.646;2023-07-31T13:03:32;20.7;77.9
79187;SHT31;68762;51.980;5.646;2023-07-31T13:06:01;20.7;78.3
79187;SHT31;68762;51.980;5.646;2023-07-31T13:08:29;20.7;78.6
79187;SHT31;68762;51.980;5.646;2023-07-31T13:10:58;20.8;78.0
79187;SHT31;68762;51.980;5.646;2023-07-31T13:13:26;20.8;77.2
79187;SHT31;68762;51.980;5.646;2023-07-31T13:15:56;20.8;76.7
79187;SHT31;68762;51.980;5.646;2023-07-31T13:18:24;20.8;76.9
79187;SHT31;68762;51.980;5.646;2023-07-31T13:20:53;20.8;76.0
79187;SHT31;68762;51.980;5.646;2023-07-31T13:23:21;20.8;76.5
79187;SHT31;68762;51.980;5.646;2023-07-31T13:25:50;20.8;76.6
79187;SHT31;68762;51.980;5.646;2023-07-31T13:28:18;20.8;76.6
79187;SHT31;68762;51.980;5.646;2023-07-31T13:30:47;20.9;76.6
79187;SHT31;68762;51.980;5.646;2023-07-31T13:33:15;20.9;76.5
79187;SHT31;68762;51.980;5.646;2023-07-31T13:35:44;20.9;76.5
79187;SHT31;68762;51.980;5.646;2023-07-31T13:38:12;20.9;76.7
79187;SHT31;68762;51.980;5.646;2023-07-31T13:40:41;20.9;76.4
79187;SHT31;68762;51.980;5.646;2023-07-31T13:43:09;20.9;76.7
79187;SHT31;68762;51.980;5.646;2023-07-31T13:45:37;20.9;76.8
79187;SHT31;68762;51.980;5.646;2023-07-31T13:48:06;20.9;76.9
79187;SHT31;68762;51.980;5.646;2023-07-31T13:50:35;20.9;77.0
79187;SHT31;68762;51.980;5.646;2023-07-31T13:53:04;20.8;77.6
79187;SHT31;68762;51.980;5.646;2023-07-31T13:55:32;20.8;77.7
79187;SHT31;68762;51.980;5.646;2023-07-31T13:58:00;20.8;78.0
79187;SHT31;68762;51.980;5.646;2023-07-31T14:00:29;20.8;77.9
79187;SHT31;68762;51.980;5.646;2023-07-31T14:02:58;20.8;77.5
79187;SHT31;68762;51.980;5.646;2023-07-31T14:05:27;20.8;77.7
79187;SHT31;68762;51.980;5.646;2023-07-31T14:07:55;20.8;78.0
79187;SHT31;68762;51.980;5.646;2023-07-31T14:10:24;20.7;78.0
79187;SHT31;68762;51.980;5.646;2023-07-31T14:12:52;20.7;78.1
79187;SHT31;68762;51.980;5.646;2023-07-31T14:15:21;20.7;78.0
79187;SHT31;68762;51.980;5.646;2023-07-31T14:17:49;20.7;77.7
79187;SHT31;68762;51.980;5.646;2023-07-31T14:20:18;20.7;78.0
79187;SHT31;68762;51.980;5.646;2023-07-31T14:22:46;20.7;78.4
79187;SHT31;68762;51.980;5.646;2023-07-31T14:25:15;20.7;77.9
79187;SHT31;68762;51.980;5.646;2023-07-31T14:27:43;20.7;78.0
79187;SHT31;68762;51.980;5.646;2023-07-31T14:30:23;20.7;78.0
79187;SHT31;68762;51.980;5.646;2023-07-31T14:32:54;20.7;78.2
79187;SHT31;68762;51.980;5.646;2023-07-31T14:35:22;20.7;78.4
79187;SHT31;68762;51.980;5.646;2023-07-31T14:37:51;20.6;78.2
79187;SHT31;68762;51.980;5.646;2023-07-31T14:40:19;20.6;78.3
79187;SHT31;68762;51.980;5.646;2023-07-31T14:42:48;20.6;78.1
79187;SHT31;68762;51.980;5.646;2023-07-31T14:45:18;20.6;78.4
79187;SHT31;68762;51.980;5.646;2023-07-31T14:47:46;20.6;78.4
79187;SHT31;68762;51.980;5.646;2023-07-31T14:50:15;20.6;78.4
79187;SHT31;68762;51.980;5.646;2023-07-31T14:52:43;20.6;78.5
79187;SHT31;68762;51.980;5.646;2023-07-31T14:55:12;20.6;78.4
79187;SHT31;68762;51.980;5.646;2023-07-31T14:57:40;20.6;78.3
79187;SHT31;68762;51.980;5.646;2023-07-31T15:00:09;20.6;78.3
79187;SHT31;68762;51.980;5.646;2023-07-31T15:02:38;20.6;78.6
79187;SHT31;68762;51.980;5.646;2023-07-31T15:05:09;20.6;78.3
79187;SHT31;68762;51.980;5.646;2023-07-31T15:07:40;20.6;78.5
79187;SHT31;68762;51.980;5.646;2023-07-31T15:10:11;20.6;78.2
79187;SHT31;68762;51.980;5.646;2023-07-31T15:12:39;20.6;78.1
79187;SHT31;68762;51.980;5.646;2023-07-31T15:15:10;20.6;77.9
79187;SHT31;68762;51.980;5.646;2023-07-31T15:17:40;20.6;78.4
79187;SHT31;68762;51.980;5.646;2023-07-31T15:20:10;20.6;77.9
79187;SHT31;68762;51.980;5.646;2023-07-31T15:22:38;20.6;78.1
79187;SHT31;68762;51.980;5.646;2023-07-31T15:25:08;20.6;78.3
79187;SHT31;68762;51.980;5.646;2023-07-31T15:27:37;20.6;78.3
79187;SHT31;68762;51.980;5.646;2023-07-31T15:30:06;20.6;78.4
79187;SHT31;68762;51.980;5.646;2023-07-31T15:32:37;20.6;78.4
79187;SHT31;68762;51.980;5.646;2023-07-31T15:35:07;20.6;78.6
79187;SHT31;68762;51.980;5.646;2023-07-31T15:37:35;20.6;78.6
79187;SHT31;68762;51.980;5.646;2023-07-31T15:40:04;20.6;78.7
79187;SHT31;68762;51.980;5.646;2023-07-31T15:42:33;20.6;78.7
79187;SHT31;68762;51.980;5.646;2023-07-31T15:45:06;20.6;78.6
79187;SHT31;68762;51.980;5.646;2023-07-31T15:47:36;20.6;78.3
79187;SHT31;68762;51.980;5.646;2023-07-31T15:50:06;20.6;78.2
79187;SHT31;68762;51.980;5.646;2023-07-31T15:52:35;20.5;78.6
79187;SHT31;68762;51.980;5.646;2023-07-31T15:55:04;20.5;78.6
79187;SHT31;68762;51.980;5.646;2023-07-31T15:57:32;20.5;78.8
79187;SHT31;68762;51.980;5.646;2023-07-31T16:00:01;20.5;78.7
79187;SHT31;68762;51.980;5.646;2023-07-31T16:02:30;20.5;78.5
79187;SHT31;68762;51.980;5.646;2023-07-31T16:04:59;20.5;78.4
79187;SHT31;68762;51.980;5.646;2023-07-31T16:07:27;20.5;78.7
79187;SHT31;68762;51.980;5.646;2023-07-31T16:09:56;20.5;78.4
79187;SHT31;68762;51.980;5.646;2023-07-31T16:12:24;20.5;78.4
79187;SHT31;68762;51.980;5.646;2023-07-31T16:14:53;20.5;78.6
79187;SHT31;68762;51.980;5.646;2023-07-31T16:17:21;20.4;78.9